Time;durP1;ratioP1;P1;durP2;ratioP2;P2;SDS_P1;SDS_P2;PMS_P1;PMS_P2;Temp;Humidity;BMP_temperature;BMP_pressure;BME280_temperature;BME280_humidity;BME280_pressure;Samples;Min_cycle;Max_cycle;Signal;HPM_P1;HPM_P2
2023/08/12 00:00:34;;;;;;;12.98;6.00;;;;;20.30;101250.00;;;;10259739;28;20238;-75
2023/08/12 00:05:35;;;;;;;10.93;5.43;;;;;20.30;101256.00;;;;10244794;28;20624;-75
2023/08/12 00:10:37;;;;;;;9.05;5.10;;;;;20.20;101251.00;;;;10261046;28;20211;-77
2023/08/12 00:15:40;;;;;;;7.57;5.82;;;;;20.20;101242.00;;;;10240217;28;20233;-77
2023/08/12 00:20:42;;;;;;;12.50;5.40;;;;;20.20;101236.00;;;;10254125;28;20202;-76
2023/08/12 00:25:49;;;;;;;10.90;4.93;;;;;20.20;101225.00;;;;10255543;28;21073;-77
2023/08/12 00:30:50;;;;;;;14.63;5.65;;;;;20.20;101218.00;;;;10256768;28;20230;-76
2023/08/12 00:35:51;;;;;;;9.63;5.25;;;;;20.10;101226.00;;;;10256053;28;20963;-76
2023/08/12 00:40:53;;;;;;;9.52;5.20;;;;;20.10;101215.00;;;;10261016;28;20221;-77
2023/08/12 00:45:54;;;;;;;11.52;5.57;;;;;20.00;101210.00;;;;10258495;28;20239;-75
2023/08/12 00:50:55;;;;;;;8.55;5.43;;;;;20.00;101207.00;;;;10255125;28;20242;-75
2023/08/12 00:55:57;;;;;;;13.15;4.97;;;;;20.00;101197.00;;;;10255247;28;20358;-75
2023/08/12 01:00:59;;;;;;;9.57;5.50;;;;;20.00;101192.00;;;;10256595;28;20457;-75
2023/08/12 01:06:02;;;;;;;9.90;5.43;;;;;19.90;101177.00;;;;10258401;28;20226;-76
2023/08/12 01:11:15;;;;;;;10.15;5.75;;;;;19.90;101178.00;;;;10260120;28;20203;-77
2023/08/12 01:16:18;;;;;;;12.98;5.60;;;;;19.90;101177.00;;;;10255615;28;20270;-77
2023/08/12 01:21:21;;;;;;;7.85;5.60;;;;;19.80;101174.00;;;;10260109;28;20939;-76
2023/08/12 01:26:23;;;;;;;8.55;5.43;;;;;19.50;101178.00;;;;10258971;28;20689;-75
2023/08/12 01:31:51;;;;;;;11.10;6.00;;;;;19.50;101169.00;;;;10224470;28;20211;-77
2023/08/12 01:36:56;;;;;;;10.68;5.53;;;;;19.50;101161.00;;;;10242383;28;20815;-77
2023/08/12 01:41:58;;;;;;;12.77;6.03;;;;;19.40;101164.00;;;;10243943;28;20211;-77
2023/08/12 01:47:00;;;;;;;11.82;6.82;;;;;19.40;101161.00;;;;10259740;28;20709;-76
2023/08/12 01:52:01;;;;;;;15.95;6.47;;;;;19.50;101163.00;;;;10260108;28;20944;-76
2023/08/12 01:57:08;;;;;;;11.70;6.93;;;;;19.40;101150.00;;;;10259058;28;20220;-76
2023/08/12 02:02:09;;;;;;;8.95;6.65;;;;;19.40;101147.00;;;;10237879;28;20215;-78
2023/08/12 02:07:10;;;;;;;9.95;6.82;;;;;19.40;101142.00;;;;10261235;28;20501;-76
2023/08/12 02:12:12;;;;;;;17.10;7.15;;;;;19.40;101117.00;;;;10235888;28;21016;-78
2023/08/12 02:17:13;;;;;;;9.30;6.95;;;;;19.40;101110.00;;;;10237009;28;20231;-77
2023/08/12 02:22:16;;;;;;;9.68;7.65;;;;;19.40;101104.00;;;;10238827;28;20203;-78
2023/08/12 02:27:18;;;;;;;15.77;7.90;;;;;19.40;101108.00;;;;10256973;28;20246;-76
2023/08/12 02:32:19;;;;;;;11.95;7.97;;;;;19.30;101089.00;;;;10242315;28;20203;-75
2023/08/12 02:37:20;;;;;;;12.15;7.78;;;;;19.30;101082.00;;;;10243350;28;20237;-76
2023/08/12 02:42:22;;;;;;;11.13;8.40;;;;;19.30;101079.00;;;;10257056;28;20242;-76
2023/08/12 02:47:23;;;;;;;15.93;7.75;;;;;19.30;101082.00;;;;10239600;28;20250;-75
2023/08/12 02:52:24;;;;;;;14.93;8.48;;;;;19.30;101079.00;;;;10257741;28;20230;-77
2023/08/12 02:57:26;;;;;;;16.52;8.93;;;;;19.30;101084.00;;;;10241562;28;20227;-77
2023/08/12 03:02:27;;;;;;;19.00;8.85;;;;;19.30;101070.00;;;;10238239;28;20203;-77
2023/08/12 03:07:29;;;;;;;13.00;8.50;;;;;19.30;101063.00;;;;10242257;28;20298;-75
2023/08/12 03:12:30;;;;;;;12.20;8.77;;;;;19.30;101070.00;;;;10261905;28;20683;-77
2023/08/12 03:17:31;;;;;;;16.45;8.35;;;;;19.30;101059.00;;;;10260961;28;20320;-74
2023/08/12 03:22:33;;;;;;;15.13;8.75;;;;;19.30;101058.00;;;;10243204;28;20674;-76
2023/08/12 03:27:35;;;;;;;17.10;8.88;;;;;19.30;101037.00;;;;10257778;28;20266;-76
2023/08/12 03:32:36;;;;;;;18.88;9.38;;;;;19.30;101039.00;;;;10249057;28;20195;-76
2023/08/12 03:37:38;;;;;;;20.70;9.55;;;;;19.30;101021.00;;;;10252092;28;20239;-76
2023/08/12 03:42:40;;;;;;;16.98;10.65;;;;;19.30;101033.00;;;;10247915;28;20215;-77
2023/08/12 03:47:41;;;;;;;17.75;10.68;;;;;19.20;101038.00;;;;10247262;28;20223;-76
2023/08/12 03:52:43;;;;;;;13.02;10.00;;;;;19.30;101028.00;;;;10240370;28;20589;-75
2023/08/12 03:57:45;;;;;;;17.20;10.85;;;;;19.20;101026.00;;;;10260912;28;21608;-78
2023/08/12 04:02:46;;;;;;;14.13;8.70;;;;;19.20;101012.00;;;;10210152;28;20299;-76
2023/08/12 04:07:48;;;;;;;19.17;9.52;;;;;19.20;101006.00;;;;10248292;28;20203;-77
2023/08/12 04:12:50;;;;;;;15.98;8.48;;;;;19.10;101006.00;;;;10232301;28;20234;-77
2023/08/12 04:17:52;;;;;;;12.43;8.68;;;;;19.10;101010.00;;;;10224939;28;20223;-76
2023/08/12 04:22:54;;;;;;;12.10;8.57;;;;;19.20;101006.00;;;;10261790;28;20276;-75
2023/08/12 04:27:56;;;;;;;10.15;8.32;;;;;19.10;100992.00;;;;10246221;28;20215;-76
2023/08/12 04:32:58;;;;;;;12.13;8.40;;;;;19.20;100992.00;;;;10261543;28;20411;-76
2023/08/12 04:38:02;;;;;;;9.93;7.60;;;;;19.20;100985.00;;;;10239385;28;20410;-75
2023/08/12 04:43:04;;;;;;;7.65;6.88;;;;;19.20;100985.00;;;;10238290;28;20294;-76
2023/08/12 04:48:08;;;;;;;10.23;7.32;;;;;19.20;100985.00;;;;10239336;28;20810;-76
2023/08/12 04:53:10;;;;;;;11.73;7.25;;;;;19.20;100974.00;;;;10254453;28;20204;-76
2023/08/12 04:58:11;;;;;;;8.80;6.38;;;;;19.30;100967.00;;;;10237524;28;20217;-77
2023/08/12 05:03:13;;;;;;;14.43;7.00;;;;;19.30;100977.00;;;;10237841;28;20211;-77
2023/08/12 05:08:14;;;;;;;6.20;5.55;;;;;19.30;100961.00;;;;10254437;28;20218;-78
2023/08/12 05:13:17;;;;;;;5.30;4.63;;;;;19.30;100967.00;;;;10235263;28;20214;-75
2023/08/12 05:18:18;;;;;;;5.72;5.10;;;;;19.40;100967.00;;;;10251551;28;20230;-75
2023/08/12 05:23:20;;;;;;;5.63;4.65;;;;;19.40;100965.00;;;;10234998;28;20207;-76
2023/08/12 05:28:22;;;;;;;4.78;4.28;;;;;19.40;100968.00;;;;10237220;28;20302;-74
2023/08/12 05:33:23;;;;;;;6.38;5.55;;;;;19.40;100965.00;;;;10251888;28;20211;-74
2023/08/12 05:38:25;;;;;;;7.60;5.93;;;;;19.50;100972.00;;;;10236957;28;20433;-76
2023/08/12 05:43:26;;;;;;;9.88;6.68;;;;;19.50;100973.00;;;;10253681;28;21137;-76
2023/08/12 05:48:28;;;;;;;7.70;6.13;;;;;19.60;100957.00;;;;10233160;28;20227;-75
2023/08/12 05:53:29;;;;;;;7.63;6.93;;;;;19.70;100958.00;;;;10252261;28;20217;-74
2023/08/12 05:58:30;;;;;;;7.20;6.60;;;;;19.70;100962.00;;;;10239665;28;21280;-77
2023/08/12 06:03:32;;;;;;;11.95;6.20;;;;;19.70;100970.00;;;;10252657;28;20801;-74
2023/08/12 06:08:34;;;;;;;8.20;5.78;;;;;19.70;100970.00;;;;10252283;28;20447;-75
2023/08/12 06:13:35;;;;;;;11.52;6.18;;;;;19.70;100973.00;;;;10255278;28;20220;-75
2023/08/12 06:18:37;;;;;;;8.70;6.75;;;;;19.80;100960.00;;;;10252342;28;20942;-76
2023/08/12 06:23:38;;;;;;;7.80;6.45;;;;;19.80;100974.00;;;;10223233;28;20216;-76
2023/08/12 06:28:39;;;;;;;6.97;6.28;;;;;19.70;100985.00;;;;10255729;28;20215;-77
2023/08/12 06:33:41;;;;;;;8.98;8.02;;;;;19.70;100981.00;;;;10258556;28;20235;-78
2023/08/12 06:38:42;;;;;;;9.38;8.27;;;;;19.80;100978.00;;;;10257685;28;20215;-77
2023/08/12 06:43:44;;;;;;;9.93;8.15;;;;;19.90;100966.00;;;;10253354;28;20791;-75
2023/08/12 06:48:45;;;;;;;9.70;8.13;;;;;20.30;100956.00;;;;10233913;28;20765;-77
2023/08/12 06:53:46;;;;;;;8.55;7.75;;;;;20.50;100962.00;;;;10257280;28;21053;-77
2023/08/12 06:58:48;;;;;;;11.15;8.50;;;;;20.40;100961.00;;;;10255946;28;20203;-77
2023/08/12 07:03:49;;;;;;;10.40;8.43;;;;;20.40;100966.00;;;;10224341;28;20311;-76
2023/08/12 07:08:50;;;;;;;10.52;8.93;;;;;20.40;100963.00;;;;10254502;28;20203;-76
2023/08/12 07:13:52;;;;;;;9.30;7.80;;;;;20.50;100956.00;;;;10230357;28;20223;-74
2023/08/12 07:18:53;;;;;;;8.10;6.68;;;;;20.70;100958.00;;;;10232988;28;20674;-76
2023/08/12 07:23:55;;;;;;;10.18;6.90;;;;;20.60;100970.00;;;;10255685;28;20596;-76
2023/08/12 07:29:02;;;;;;;10.55;5.57;;;;;20.30;100985.00;;;;10237329;28;20235;-77
2023/08/12 07:34:04;;;;;;;6.18;3.50;;;;;20.10;100993.00;;;;10252602;28;20224;-75
2023/08/12 07:39:06;;;;;;;4.32;2.90;;;;;20.00;100990.00;;;;10251337;28;22027;-74
2023/08/12 07:44:08;;;;;;;2.92;2.47;;;;;19.80;101004.00;;;;10234421;28;20230;-77
2023/08/12 07:49:09;;;;;;;3.78;2.17;;;;;19.70;101008.00;;;;10254423;28;20322;-76
2023/08/12 07:54:12;;;;;;;4.13;2.47;;;;;20.10;101005.00;;;;10256845;28;20219;-76
2023/08/12 07:59:13;;;;;;;8.57;2.60;;;;;20.30;100997.00;;;;10244428;28;20226;-73
2023/08/12 08:04:14;;;;;;;6.30;3.50;;;;;21.10;101000.00;;;;10257649;28;20341;-76
2023/08/12 08:09:16;;;;;;;4.85;2.72;;;;;21.20;101002.00;;;;10255939;28;20659;-73
2023/08/12 08:14:17;;;;;;;2.78;2.22;;;;;21.10;101019.00;;;;10239121;28;20241;-73
2023/08/12 08:19:18;;;;;;;5.57;3.10;;;;;20.60;101026.00;;;;10257027;28;20204;-77
2023/08/12 08:24:20;;;;;;;4.00;3.45;;;;;20.90;101036.00;;;;10257658;28;20204;-76
2023/08/12 08:29:22;;;;;;;6.88;3.58;;;;;20.90;101039.00;;;;10257667;28;20214;-73
2023/08/12 08:34:24;;;;;;;6.55;4.82;;;;;20.90;101046.00;;;;10224881;28;21134;-77
2023/08/12 08:39:26;;;;;;;7.60;4.88;;;;;20.70;101049.00;;;;10264335;28;20803;-76
2023/08/12 08:44:31;;;;;;;7.72;4.80;;;;;20.80;101064.00;;;;10225390;28;20677;-76
2023/08/12 08:49:34;;;;;;;6.93;5.72;;;;;21.00;101063.00;;;;10258598;28;20218;-77
2023/08/12 08:54:36;;;;;;;7.55;6.18;;;;;22.00;101055.00;;;;10245525;28;20239;-76
2023/08/12 08:59:37;;;;;;;8.88;5.57;;;;;21.80;101062.00;;;;10236632;28;20278;-77
2023/08/12 09:04:39;;;;;;;7.22;4.88;;;;;21.20;101071.00;;;;10237181;28;20700;-76
2023/08/12 09:09:48;;;;;;;8.57;5.18;;;;;21.70;101073.00;;;;10258386;28;20203;-77
2023/08/12 09:14:49;;;;;;;7.05;5.93;;;;;22.10;101073.00;;;;10239630;28;20651;-75
2023/08/12 09:19:51;;;;;;;9.65;6.18;;;;;23.50;101074.00;;;;10238032;28;20203;-76
2023/08/12 09:24:57;;;;;;;7.78;4.63;;;;;23.30;101082.00;;;;10239110;28;20203;-76
2023/08/12 09:30:02;;;;;;;4.97;3.70;;;;;22.70;101083.00;;;;10251966;28;20780;-77
2023/08/12 09:35:05;;;;;;;11.23;3.72;;;;;22.00;101106.00;;;;10255111;28;20230;-77
2023/08/12 09:40:08;;;;;;;6.32;3.78;;;;;22.30;101089.00;;;;10236766;28;20494;-77
2023/08/12 09:45:10;;;;;;;5.22;3.65;;;;;21.70;101101.00;;;;10259758;28;20211;-77
2023/08/12 09:50:13;;;;;;;9.00;3.90;;;;;22.50;101114.00;;;;10262586;28;20238;-77
2023/08/12 09:55:16;;;;;;;5.57;2.95;;;;;22.30;101115.00;;;;10247491;28;22054;-78
2023/08/12 10:00:20;;;;;;;5.03;2.33;;;;;22.50;101116.00;;;;10270203;28;20312;-77
2023/08/12 10:05:26;;;;;;;9.25;2.75;;;;;22.60;101109.00;;;;10257856;28;20211;-78
2023/08/12 10:10:30;;;;;;;6.78;3.03;;;;;22.80;101114.00;;;;10254745;28;20207;-77
2023/08/12 10:15:31;;;;;;;4.32;2.58;;;;;23.00;101105.00;;;;10255861;28;20219;-76
2023/08/12 10:20:35;;;;;;;4.60;2.70;;;;;23.00;101102.00;;;;10259786;28;20207;-75
2023/08/12 10:25:41;;;;;;;6.82;2.35;;;;;23.40;101100.00;;;;10248667;28;20585;-78
2023/08/12 10:30:44;;;;;;;8.18;2.35;;;;;23.50;101087.00;;;;10240357;28;20217;-75
2023/08/12 10:35:48;;;;;;;4.88;1.83;;;;;23.70;101092.00;;;;10254349;28;20227;-76
2023/08/12 10:40:50;;;;;;;4.65;1.83;;;;;24.00;101085.00;;;;10261419;28;20301;-77
2023/08/12 10:45:53;;;;;;;4.50;1.75;;;;;24.80;101085.00;;;;10238021;28;20493;-76
2023/08/12 10:50:55;;;;;;;5.07;1.63;;;;;25.40;101088.00;;;;10263893;28;20214;-78
2023/08/12 10:56:03;;;;;;;5.78;2.17;;;;;25.60;101092.00;;;;10257944;28;20906;-78
2023/08/12 11:01:13;;;;;;;5.50;1.77;;;;;25.70;101082.00;;;;10241063;28;20246;-77
2023/08/12 11:06:14;;;;;;;5.57;2.28;;;;;26.00;101076.00;;;;10256850;28;20230;-77
2023/08/12 11:11:20;;;;;;;3.97;1.60;;;;;26.50;101085.00;;;;10239397;28;20322;-76
2023/08/12 11:16:34;;;;;;;6.40;2.05;;;;;26.80;101081.00;;;;10254567;28;21012;-77
2023/08/12 11:21:36;;;;;;;8.18;2.05;;;;;27.20;101085.00;;;;10255647;28;20242;-77
2023/08/12 11:26:39;;;;;;;5.28;1.92;;;;;27.20;101078.00;;;;10259391;28;21043;-75
2023/08/12 11:31:40;;;;;;;4.15;1.90;;;;;27.90;101083.00;;;;10260198;28;20226;-75
2023/08/12 11:36:42;;;;;;;6.97;2.00;;;;;27.20;101087.00;;;;10260611;28;21833;-78
2023/08/12 11:41:44;;;;;;;6.65;1.80;;;;;28.40;101081.00;;;;10274541;28;20203;-79
2023/08/12 11:46:45;;;;;;;4.95;1.60;;;;;28.50;101099.00;;;;10263906;28;20223;-78
2023/08/12 11:51:48;;;;;;;7.55;2.30;;;;;26.90;101099.00;;;;10264549;28;20238;-76
2023/08/12 11:56:50;;;;;;;6.93;1.95;;;;;26.90;101100.00;;;;10264192;28;21177;-79
2023/08/12 12:01:51;;;;;;;6.75;1.70;;;;;27.80;101082.00;;;;10258068;28;20408;-76
2023/08/12 12:06:53;;;;;;;2.75;1.38;;;;;28.60;101085.00;;;;10264902;28;20592;-78
2023/08/12 12:11:55;;;;;;;3.70;1.55;;;;;29.00;101087.00;;;;10272781;28;20207;-76
2023/08/12 12:16:56;;;;;;;5.05;1.77;;;;;29.10;101089.00;;;;10263969;28;20354;-77
2023/08/12 12:22:03;;;;;;;7.05;1.83;;;;;28.90;101088.00;;;;10261581;28;20727;-78
2023/08/12 12:27:04;;;;;;;5.43;1.67;;;;;29.10;101084.00;;;;10251683;28;20301;-78
2023/08/12 12:32:06;;;;;;;5.68;1.70;;;;;29.40;101094.00;;;;10267821;28;20218;-78
2023/08/12 12:37:07;;;;;;;6.35;1.83;;;;;28.50;101099.00;;;;10266898;28;20235;-77
2023/08/12 12:42:09;;;;;;;4.05;1.33;;;;;29.00;101103.00;;;;10241483;28;20206;-76
2023/08/12 12:47:12;;;;;;;2.63;1.27;;;;;28.50;101114.00;;;;10259403;28;21097;-77
2023/08/12 12:52:13;;;;;;;5.88;1.80;;;;;29.10;101108.00;;;;10257874;28;20207;-78
2023/08/12 12:57:15;;;;;;;6.38;1.75;;;;;30.00;101103.00;;;;10268079;28;20238;-77
2023/08/12 13:02:17;;;;;;;3.33;1.60;;;;;29.80;101125.00;;;;10260166;28;20207;-78
2023/08/12 13:07:18;;;;;;;6.15;1.58;;;;;29.60;101119.00;;;;10254896;28;20203;-76
2023/08/12 13:12:19;;;;;;;2.22;1.23;;;;;30.00;101121.00;;;;10262196;28;20799;-78
2023/08/12 13:17:21;;;;;;;4.10;1.60;;;;;29.60;101137.00;;;;10266206;28;20397;-78
2023/08/12 13:22:22;;;;;;;5.18;1.40;;;;;28.90;101132.00;;;;10259377;28;20513;-76
2023/08/12 13:27:23;;;;;;;3.35;1.42;;;;;29.10;101125.00;;;;10254664;28;20481;-77
2023/08/12 13:32:25;;;;;;;3.55;1.30;;;;;28.30;101123.00;;;;10225267;28;20278;-78
2023/08/12 13:37:26;;;;;;;3.97;1.70;;;;;27.70;101130.00;;;;10267146;28;20223;-77
2023/08/12 13:42:27;;;;;;;4.30;1.80;;;;;29.00;101121.00;;;;10258185;28;20765;-77
2023/08/12 13:47:28;;;;;;;4.53;2.03;;;;;29.30;101118.00;;;;10257719;28;20906;-77
2023/08/12 13:52:30;;;;;;;5.75;2.10;;;;;28.60;101123.00;;;;10256549;28;20259;-77
2023/08/12 13:57:32;;;;;;;4.10;1.90;;;;;27.00;101120.00;;;;10257596;28;20208;-77
2023/08/12 14:02:33;;;;;;;4.55;1.90;;;;;26.80;101099.00;;;;10258078;28;20703;-76
2023/08/12 14:07:35;;;;;;;5.53;1.95;;;;;27.10;101099.00;;;;10256459;28;20225;-77
2023/08/12 14:12:36;;;;;;;4.15;1.67;;;;;28.40;101106.00;;;;10237163;28;20215;-76
2023/08/12 14:17:37;;;;;;;3.88;1.60;;;;;29.10;101112.00;;;;10239699;28;20227;-78
2023/08/12 14:22:38;;;;;;;5.32;1.92;;;;;27.90;101110.00;;;;10237174;28;20621;-76
2023/08/12 14:27:40;;;;;;;4.55;1.40;;;;;27.40;101106.00;;;;10256559;28;20215;-77
2023/08/12 14:32:41;;;;;;;3.50;1.85;;;;;27.60;101099.00;;;;10260193;28;20199;-78
2023/08/12 14:37:42;;;;;;;4.57;1.88;;;;;28.00;101092.00;;;;10243500;28;20954;-77
2023/08/12 14:42:44;;;;;;;4.45;1.88;;;;;28.10;101093.00;;;;10258739;28;21914;-78
2023/08/12 14:47:45;;;;;;;5.05;1.75;;;;;27.60;101087.00;;;;10265225;28;20261;-77
2023/08/12 14:52:47;;;;;;;4.35;1.30;;;;;28.90;101085.00;;;;10256229;28;20199;-75
2023/08/12 14:57:49;;;;;;;4.13;1.77;;;;;29.50;101080.00;;;;10255528;28;20228;-76
2023/08/12 15:02:50;;;;;;;6.88;1.83;;;;;29.30;101079.00;;;;10259203;28;20210;-77
2023/08/12 15:07:51;;;;;;;5.13;1.90;;;;;28.80;101083.00;;;;10249938;28;20210;-76
2023/08/12 15:12:53;;;;;;;5.10;1.65;;;;;27.50;101073.00;;;;10246453;28;20276;-75
2023/08/12 15:17:54;;;;;;;8.35;2.40;;;;;26.40;101068.00;;;;10263391;28;21346;-75
2023/08/12 15:22:55;;;;;;;5.53;1.92;;;;;26.50;101061.00;;;;10263516;28;20219;-76
2023/08/12 15:27:57;;;;;;;4.38;1.85;;;;;26.30;101080.00;;;;10264230;28;20812;-77
2023/08/12 15:32:58;;;;;;;6.30;2.05;;;;;25.70;101076.00;;;;10231573;28;21070;-77
2023/08/12 15:38:00;;;;;;;7.03;2.10;;;;;25.40;101063.00;;;;10259536;28;20489;-78
2023/08/12 15:43:02;;;;;;;5.82;1.77;;;;;25.70;101069.00;;;;10248554;28;21355;-76
2023/08/12 15:48:03;;;;;;;5.60;1.85;;;;;26.30;101070.00;;;;10243785;28;20484;-75
2023/08/12 15:53:05;;;;;;;5.15;1.92;;;;;27.10;101079.00;;;;10244313;28;20785;-76
2023/08/12 15:58:06;;;;;;;4.07;1.90;;;;;25.40;101081.00;;;;10264615;28;20223;-78
2023/08/12 16:03:09;;;;;;;11.85;2.30;;;;;24.90;101085.00;;;;10264698;28;20583;-76
2023/08/12 16:08:10;;;;;;;5.07;2.13;;;;;24.80;101081.00;;;;10247815;28;20207;-78
2023/08/12 16:13:12;;;;;;;5.72;2.40;;;;;24.70;101081.00;;;;10266092;28;20199;-78
2023/08/12 16:18:13;;;;;;;5.47;2.30;;;;;24.90;101088.00;;;;10258468;28;20322;-74
2023/08/12 16:23:15;;;;;;;6.97;2.13;;;;;25.00;101086.00;;;;10256646;28;20250;-76
2023/08/12 16:28:16;;;;;;;5.38;2.40;;;;;24.40;101091.00;;;;10242311;28;20677;-78
2023/08/12 16:33:18;;;;;;;5.30;2.10;;;;;24.20;101076.00;;;;10260431;28;20658;-76
2023/08/12 16:38:20;;;;;;;5.40;2.10;;;;;24.20;101086.00;;;;10260504;28;20436;-77
2023/08/12 16:43:22;;;;;;;11.27;2.33;;;;;24.10;101081.00;;;;10249510;28;20667;-78
2023/08/12 16:48:23;;;;;;;9.73;2.42;;;;;24.00;101089.00;;;;10272647;28;20588;-77
2023/08/12 16:53:25;;;;;;;9.63;2.15;;;;;23.80;101092.00;;;;10259540;28;20349;-78
2023/08/12 16:58:26;;;;;;;10.38;3.22;;;;;23.60;101091.00;;;;10244044;28;20222;-77
2023/08/12 17:03:28;;;;;;;4.70;2.00;;;;;23.60;101094.00;;;;10262766;28;20441;-78
2023/08/12 17:08:29;;;;;;;6.50;2.03;;;;;23.50;101099.00;;;;10245164;28;20233;-75
2023/08/12 17:13:31;;;;;;;8.20;2.50;;;;;23.20;101086.00;;;;10260949;28;20249;-76
2023/08/12 17:18:32;;;;;;;5.47;2.05;;;;;23.00;101103.00;;;;10261686;28;20863;-76
2023/08/12 17:23:34;;;;;;;7.50;2.72;;;;;22.90;101093.00;;;;10260895;28;20726;-75
2023/08/12 17:28:35;;;;;;;11.10;4.10;;;;;22.80;101100.00;;;;10240256;28;20199;-76
2023/08/12 17:33:36;;;;;;;6.43;2.45;;;;;22.70;101100.00;;;;10261737;28;20786;-75
2023/08/12 17:38:38;;;;;;;8.77;2.67;;;;;22.60;101107.00;;;;10257700;28;20246;-76
2023/08/12 17:43:41;;;;;;;6.32;2.63;;;;;22.60;101109.00;;;;10256208;28;20216;-75
2023/08/12 17:48:42;;;;;;;7.68;3.85;;;;;22.50;101117.00;;;;10241738;28;20946;-76
2023/08/12 17:53:45;;;;;;;4.93;2.05;;;;;22.40;101109.00;;;;10241850;28;20211;-76
2023/08/12 17:58:47;;;;;;;11.55;3.05;;;;;22.30;101113.00;;;;10237604;28;20219;-75
2023/08/12 18:03:48;;;;;;;6.95;2.38;;;;;22.10;101118.00;;;;10224056;28;20301;-76
2023/08/12 18:08:50;;;;;;;5.90;2.25;;;;;21.90;101121.00;;;;10257908;28;20207;-74
2023/08/12 18:13:51;;;;;;;5.78;1.60;;;;;21.70;101130.00;;;;10258475;28;20234;-76
2023/08/12 18:18:53;;;;;;;8.20;2.80;;;;;21.50;101134.00;;;;10256998;28;20769;-76
2023/08/12 18:23:54;;;;;;;4.32;1.60;;;;;21.30;101141.00;;;;10225442;28;20977;-76
2023/08/12 18:28:56;;;;;;;5.13;2.22;;;;;21.10;101142.00;;;;10256250;28;20253;-76
2023/08/12 18:33:57;;;;;;;7.05;2.05;;;;;21.00;101152.00;;;;10259159;28;20215;-75
2023/08/12 18:38:58;;;;;;;8.20;2.38;;;;;20.90;101144.00;;;;10258545;28;20301;-76
2023/08/12 18:44:00;;;;;;;17.50;2.80;;;;;20.70;101148.00;;;;10255457;28;20210;-77
2023/08/12 18:49:01;;;;;;;8.52;2.33;;;;;20.50;101152.00;;;;10258065;28;20578;-76
2023/08/12 18:54:04;;;;;;;7.43;1.90;;;;;20.30;101156.00;;;;10257771;28;20211;-75
2023/08/12 18:59:05;;;;;;;7.85;1.98;;;;;20.00;101156.00;;;;10255406;28;20287;-76
2023/08/12 19:04:06;;;;;;;8.75;2.00;;;;;19.80;101156.00;;;;10237110;28;20285;-76
2023/08/12 19:09:08;;;;;;;8.68;2.25;;;;;19.60;101151.00;;;;10262155;28;20247;-77
2023/08/12 19:14:12;;;;;;;7.85;2.30;;;;;19.50;101164.00;;;;10225117;28;20269;-76
2023/08/12 19:19:15;;;;;;;8.57;2.20;;;;;19.30;101166.00;;;;10259903;28;20222;-77
2023/08/12 19:24:16;;;;;;;10.38;2.83;;;;;19.20;101176.00;;;;10241113;28;21896;-75
2023/08/12 19:29:18;;;;;;;13.93;3.08;;;;;19.00;101187.00;;;;10257222;28;20211;-75
2023/08/12 19:34:19;;;;;;;9.35;2.63;;;;;18.80;101189.00;;;;10223178;28;20234;-75
2023/08/12 19:39:21;;;;;;;8.23;2.50;;;;;18.80;101193.00;;;;10253148;28;20215;-76
2023/08/12 19:44:22;;;;;;;10.50;2.58;;;;;18.70;101195.00;;;;10254234;28;20882;-77
2023/08/12 19:49:24;;;;;;;10.52;3.15;;;;;18.60;101204.00;;;;10240283;28;20743;-76
2023/08/12 19:54:26;;;;;;;5.97;2.30;;;;;18.50;101210.00;;;;10257150;28;20261;-77
2023/08/12 19:59:28;;;;;;;8.73;2.40;;;;;18.40;101213.00;;;;10243136;28;20476;-76
2023/08/12 20:04:30;;;;;;;7.15;2.60;;;;;18.40;101210.00;;;;10267889;28;20246;-77
2023/08/12 20:09:31;;;;;;;8.90;2.42;;;;;18.40;101214.00;;;;10264050;28;20288;-76
2023/08/12 20:14:32;;;;;;;9.98;2.22;;;;;18.30;101227.00;;;;10261152;28;20261;-75
2023/08/12 20:19:34;;;;;;;10.77;2.92;;;;;18.20;101218.00;;;;10225560;28;20207;-76
2023/08/12 20:24:36;;;;;;;7.90;2.70;;;;;18.10;101229.00;;;;10257087;28;20212;-74
2023/08/12 20:29:37;;;;;;;10.35;3.15;;;;;17.90;101226.00;;;;10244155;28;21450;-75
2023/08/12 20:34:40;;;;;;;12.30;2.88;;;;;17.80;101229.00;;;;10259142;28;20539;-75
2023/08/12 20:39:42;;;;;;;7.35;2.38;;;;;17.70;101230.00;;;;10257026;28;20909;-75
2023/08/12 20:44:43;;;;;;;8.00;2.60;;;;;17.70;101227.00;;;;10243394;28;21265;-75
2023/08/12 20:49:44;;;;;;;7.60;2.60;;;;;17.50;101241.00;;;;10256648;28;20214;-76
2023/08/12 20:54:46;;;;;;;9.10;2.85;;;;;17.50;101241.00;;;;10236963;28;20224;-76
2023/08/12 20:59:48;;;;;;;9.48;2.88;;;;;17.50;101225.00;;;;10260077;28;20251;-76
2023/08/12 21:04:50;;;;;;;8.73;2.58;;;;;17.40;101232.00;;;;10242403;28;20448;-75
2023/08/12 21:09:51;;;;;;;12.45;3.30;;;;;17.40;101245.00;;;;10256285;28;20294;-76
2023/08/12 21:14:52;;;;;;;11.15;3.20;;;;;17.30;101240.00;;;;10256792;28;20903;-77
2023/08/12 21:19:53;;;;;;;10.48;2.90;;;;;17.30;101248.00;;;;10239960;28;20211;-76
2023/08/12 21:24:55;;;;;;;10.88;2.95;;;;;17.40;101253.00;;;;10262084;28;20617;-77
2023/08/12 21:29:56;;;;;;;12.73;2.80;;;;;17.40;101249.00;;;;10257138;28;20350;-75
2023/08/12 21:34:58;;;;;;;6.82;2.47;;;;;17.30;101247.00;;;;10242558;28;20223;-77
2023/08/12 21:39:59;;;;;;;13.95;2.53;;;;;17.30;101252.00;;;;10262423;28;21484;-77
2023/08/12 21:45:00;;;;;;;7.35;2.55;;;;;17.50;101256.00;;;;10244142;28;20456;-77
2023/08/12 21:50:02;;;;;;;10.90;3.47;;;;;17.50;101252.00;;;;10257634;28;20238;-75
2023/08/12 21:55:04;;;;;;;10.35;2.55;;;;;17.50;101259.00;;;;10222938;28;20211;-77
2023/08/12 22:00:11;;;;;;;8.43;2.50;;;;;17.40;101258.00;;;;10254325;28;20522;-76
2023/08/12 22:05:12;;;;;;;13.98;2.25;;;;;17.30;101252.00;;;;10255038;28;20254;-76
2023/08/12 22:10:14;;;;;;;7.10;2.55;;;;;17.20;101251.00;;;;10240414;28;20222;-76
2023/08/12 22:15:15;;;;;;;8.45;2.35;;;;;17.10;101246.00;;;;10259693;28;20356;-77
2023/08/12 22:20:17;;;;;;;11.95;3.40;;;;;17.10;101248.00;;;;10241376;28;20273;-75
2023/08/12 22:25:19;;;;;;;12.00;3.42;;;;;17.00;101255.00;;;;10256959;28;20716;-77
2023/08/12 22:30:20;;;;;;;9.30;2.63;;;;;17.10;101251.00;;;;10257832;28;20220;-75
2023/08/12 22:35:21;;;;;;;9.77;2.35;;;;;17.10;101250.00;;;;10259419;28;20425;-76
2023/08/12 22:40:23;;;;;;;10.93;2.50;;;;;17.10;101241.00;;;;10257536;28;20199;-76
2023/08/12 22:45:25;;;;;;;9.20;2.88;;;;;17.00;101233.00;;;;10254066;28;21378;-75
2023/08/12 22:50:26;;;;;;;10.13;2.45;;;;;17.00;101245.00;;;;10261080;28;20214;-77
2023/08/12 22:55:27;;;;;;;11.82;3.05;;;;;16.90;101255.00;;;;10254418;28;20780;-76
2023/08/12 23:00:29;;;;;;;9.25;3.00;;;;;16.90;101251.00;;;;10253135;28;20222;-75
2023/08/12 23:05:30;;;;;;;8.35;2.67;;;;;16.90;101254.00;;;;10253167;28;20219;-76
2023/08/12 23:10:31;;;;;;;10.70;2.75;;;;;16.80;101264.00;;;;10235636;28;20762;-76
2023/08/12 23:15:32;;;;;;;6.80;2.42;;;;;16.70;101257.00;;;;10254632;28;20235;-77
2023/08/12 23:20:34;;;;;;;13.02;2.80;;;;;16.60;101263.00;;;;10254064;28;20576;-75
2023/08/12 23:25:35;;;;;;;9.95;2.65;;;;;16.60;101272.00;;;;10240618;28;20210;-76
2023/08/12 23:30:37;;;;;;;6.80;3.30;;;;;16.50;101278.00;;;;10263376;28;20322;-76
2023/08/12 23:35:40;;;;;;;7.75;2.50;;;;;16.40;101274.00;;;;10262398;28;21745;-77
2023/08/12 23:40:42;;;;;;;8.55;2.72;;;;;16.30;101272.00;;;;10259534;28;20234;-77
2023/08/12 23:45:44;;;;;;;10.55;3.05;;;;;16.30;101268.00;;;;10263208;28;20211;-76
2023/08/12 23:50:45;;;;;;;13.15;2.70;;;;;16.20;101253.00;;;;10243309;28;20354;-76
2023/08/12 23:55:47;;;;;;;10.02;2.88;;;;;16.20;101266.00;;;;10258002;28;20223;-75
